Time;durP1;ratioP1;P1;durP2;ratioP2;P2;SDS_P1;SDS_P2;PMS_P1;PMS_P2;Temp;Humidity;BMP_temperature;BMP_pressure;BME280_temperature;BME280_humidity;BME280_pressure;Samples;Min_cycle;Max_cycle;Signal;HPM_P1;HPM_P2
2022/11/23 00:02:18;;;;;;;4.63;1.73;;;;;;;3.82;100.00;95026.31;5056355;28;20208;-70
2022/11/23 00:04:45;;;;;;;3.07;1.67;;;;;;;3.75;100.00;95020.13;5056758;28;20215;-70
2022/11/23 00:07:11;;;;;;;7.60;1.67;;;;;;;3.67;100.00;95018.34;5056779;28;20211;-70
2022/11/23 00:09:38;;;;;;;2.93;1.30;;;;;;;3.59;100.00;95021.91;5056318;28;20583;-70
2022/11/23 00:12:04;;;;;;;2.03;1.27;;;;;;;3.50;100.00;95022.91;5059002;28;20680;-70
2022/11/23 00:14:31;;;;;;;7.33;1.63;;;;;;;3.47;100.00;95023.25;5056416;28;20596;-70
2022/11/23 00:16:58;;;;;;;5.30;1.63;;;;;;;3.32;100.00;95022.25;5056341;28;20218;-70
2022/11/23 00:19:26;;;;;;;2.40;1.47;;;;;;;3.50;100.00;95023.75;5058010;28;20608;-70
2022/11/23 00:21:52;;;;;;;3.43;1.37;;;;;;;3.55;100.00;95023.22;5060657;28;20204;-70
2022/11/23 00:24:19;;;;;;;7.07;2.20;;;;;;;3.56;100.00;95015.25;5066955;28;20197;-70
2022/11/23 00:26:45;;;;;;;5.57;1.87;;;;;;;3.63;100.00;95011.81;5060207;28;20218;-70
2022/11/23 00:29:12;;;;;;;4.27;1.70;;;;;;;3.59;100.00;95014.94;5068345;28;20223;-70
2022/11/23 00:31:38;;;;;;;2.73;1.50;;;;;;;3.60;100.00;95020.94;5059588;28;20980;-70
2022/11/23 00:34:05;;;;;;;1.60;1.40;;;;;;;3.60;100.00;95026.16;5059513;28;20316;-70
2022/11/23 00:36:33;;;;;;;2.10;1.57;;;;;;;3.55;100.00;95023.22;5061116;28;20231;-70
2022/11/23 00:38:59;;;;;;;5.40;1.67;;;;;;;3.45;100.00;95027.78;5059517;28;20248;-70
2022/11/23 00:41:27;;;;;;;3.67;1.53;;;;;;;3.55;100.00;95023.22;5059622;28;20211;-70
2022/11/23 00:43:53;;;;;;;2.27;1.67;;;;;;;3.58;100.00;95017.69;5059813;28;20201;-70
2022/11/23 00:46:22;;;;;;;2.83;1.40;;;;;;;3.62;100.00;95022.41;5057846;28;20204;-70
2022/11/23 00:48:50;;;;;;;2.17;1.47;;;;;;;3.65;100.00;95020.31;5059388;28;20242;-70
2022/11/23 00:51:19;;;;;;;5.57;1.97;;;;;;;3.67;100.00;95020.13;5060220;28;20211;-70
2022/11/23 00:53:47;;;;;;;6.07;1.87;;;;;;;3.69;100.00;95021.59;5059401;28;20216;-70
2022/11/23 00:56:14;;;;;;;5.10;2.00;;;;;;;3.72;100.00;95016.03;5059565;28;20727;-70
2022/11/23 00:58:41;;;;;;;2.93;1.70;;;;;;;3.76;100.00;95016.53;5059574;28;20221;-70
2022/11/23 01:01:09;;;;;;;2.93;1.70;;;;;;;3.71;100.00;95013.63;5059229;28;20853;-70
2022/11/23 01:03:37;;;;;;;3.30;1.60;;;;;;;3.64;100.00;95015.25;5066690;28;20215;-70
2022/11/23 01:06:09;;;;;;;4.07;2.00;;;;;;;3.69;100.00;95016.38;5059853;28;20200;-70
2022/11/23 01:08:36;;;;;;;2.90;1.67;;;;;;;3.62;100.00;95026.81;5067525;28;20233;-70
2022/11/23 01:11:05;;;;;;;5.07;1.50;;;;;;;3.62;100.00;95018.00;5059108;28;20596;-70
2022/11/23 01:13:32;;;;;;;2.20;1.40;;;;;;;3.64;100.00;95029.09;5066288;28;20208;-70
2022/11/23 01:15:59;;;;;;;5.20;1.97;;;;;;;3.66;100.00;95031.53;5059500;28;20266;-70
2022/11/23 01:18:26;;;;;;;6.53;2.20;;;;;;;3.73;100.00;95035.91;5059268;28;20220;-70
2022/11/23 01:20:52;;;;;;;2.40;1.60;;;;;;;3.66;100.00;95034.94;5059442;28;20332;-70
2022/11/23 01:23:19;;;;;;;6.27;1.53;;;;;;;3.62;100.00;95031.03;5058990;28;20398;-70
2022/11/23 01:25:45;;;;;;;3.57;1.67;;;;;;;3.64;100.00;95034.28;5059248;28;20963;-70
2022/11/23 01:28:14;;;;;;;2.10;1.40;;;;;;;3.71;100.00;95032.66;5059923;28;20235;-70
2022/11/23 01:30:40;;;;;;;5.07;1.30;;;;;;;3.70;100.00;95033.66;5058336;28;20200;-70
2022/11/23 01:33:07;;;;;;;2.30;1.30;;;;;;;3.62;100.00;95036.25;5058620;28;20215;-70
2022/11/23 01:35:33;;;;;;;2.00;1.40;;;;;;;3.73;100.00;95035.91;5058729;28;20704;-70
2022/11/23 01:38:00;;;;;;;2.63;1.80;;;;;;;3.73;100.00;95032.50;5058914;28;20231;-70
2022/11/23 01:40:26;;;;;;;3.40;1.80;;;;;;;3.76;100.00;95025.16;5059879;28;20211;-70
2022/11/23 01:42:55;;;;;;;1.70;1.37;;;;;;;3.80;100.00;95021.25;5065973;28;20205;-70
2022/11/23 01:45:37;;;;;;;2.73;1.37;;;;;;;3.92;100.00;95027.75;5055982;28;20206;-70
2022/11/23 01:48:09;;;;;;;2.77;1.53;;;;;;;3.92;100.00;95026.91;5059334;28;20281;-70
2022/11/23 01:50:37;;;;;;;3.70;1.60;;;;;;;3.93;100.00;95023.34;5059525;28;20196;-70
2022/11/23 01:53:03;;;;;;;3.67;1.77;;;;;;;3.97;100.00;95030.66;5057520;28;20687;-70
2022/11/23 01:55:32;;;;;;;4.07;1.70;;;;;;;3.90;100.00;95028.88;5057649;28;20220;-69
2022/11/23 01:57:59;;;;;;;5.87;1.73;;;;;;;4.00;100.00;95030.31;5074296;28;20224;-70
2022/11/23 02:00:26;;;;;;;4.77;1.80;;;;;;;3.91;100.00;95041.75;5070731;28;20578;-70
2022/11/23 02:02:57;;;;;;;7.03;1.70;;;;;;;4.02;100.00;95036.19;5057720;28;20739;-70
2022/11/23 02:05:29;;;;;;;2.27;1.40;;;;;;;4.02;100.00;95044.00;5058544;28;20565;-69
2022/11/23 02:07:57;;;;;;;2.63;1.37;;;;;;;4.02;100.00;95044.00;5058372;28;20636;-69
2022/11/23 02:10:24;;;;;;;3.10;1.50;;;;;;;3.96;100.00;95044.66;5058178;28;20211;-70
2022/11/23 02:12:52;;;;;;;3.07;1.67;;;;;;;4.01;100.00;95047.59;5057707;28;20197;-70
2022/11/23 02:15:19;;;;;;;2.33;1.40;;;;;;;4.03;100.00;95050.81;5057593;28;20216;-70
2022/11/23 02:17:46;;;;;;;3.83;1.90;;;;;;;4.08;100.00;95043.34;5058261;28;20205;-70
2022/11/23 02:20:17;;;;;;;1.27;1.10;;;;;;;4.13;100.00;95042.84;5058497;28;20664;-70
2022/11/23 02:22:55;;;;;;;3.13;1.50;;;;;;;4.14;100.00;95042.66;5057532;28;20216;-70
2022/11/23 02:25:29;;;;;;;6.37;1.80;;;;;;;4.18;100.00;95036.13;5058144;28;20196;-70
2022/11/23 02:27:57;;;;;;;4.70;1.70;;;;;;;4.19;100.00;95040.38;5061533;28;20208;-70
2022/11/23 02:30:25;;;;;;;2.37;1.30;;;;;;;4.20;100.00;95039.41;5057821;28;20204;-70
2022/11/23 02:32:51;;;;;;;3.20;1.80;;;;;;;4.17;100.00;95044.13;5057157;28;20204;-70
2022/11/23 02:35:18;;;;;;;2.40;1.47;;;;;;;4.17;100.00;95031.91;5057884;28;20221;-70
2022/11/23 02:37:45;;;;;;;3.00;1.67;;;;;;;4.17;100.00;95036.31;5057961;28;20582;-70
2022/11/23 02:40:20;;;;;;;3.43;1.70;;;;;;;4.25;100.00;95048.34;5057229;28;21031;-70
2022/11/23 02:42:49;;;;;;;6.03;1.93;;;;;;;4.27;100.00;95042.97;5056135;28;20204;-70
2022/11/23 02:45:27;;;;;;;4.53;1.97;;;;;;;4.29;100.00;95043.63;5055431;28;20266;-70
2022/11/23 02:47:53;;;;;;;12.57;2.33;;;;;;;4.23;100.00;95047.69;5057556;28;20219;-70
2022/11/23 02:50:20;;;;;;;5.53;2.27;;;;;;;4.32;100.00;95048.47;5057631;28;20611;-70
2022/11/23 02:52:47;;;;;;;2.77;1.73;;;;;;;4.35;100.00;95043.75;5056906;28;20219;-70
2022/11/23 02:55:14;;;;;;;3.53;1.93;;;;;;;4.27;100.00;95035.13;5056970;28;20235;-70
2022/11/23 02:57:40;;;;;;;2.97;1.80;;;;;;;4.30;100.00;95040.84;5057320;28;20200;-70
2022/11/23 03:00:08;;;;;;;5.80;2.13;;;;;;;4.36;100.00;95036.72;5066270;28;20701;-70
2022/11/23 03:02:36;;;;;;;6.73;2.33;;;;;;;4.43;100.00;95029.84;5056772;28;20560;-70
2022/11/23 03:05:03;;;;;;;7.57;2.30;;;;;;;4.36;100.00;95041.94;5056867;28;20634;-70
2022/11/23 03:07:29;;;;;;;8.40;2.20;;;;;;;4.35;100.00;95037.72;5057671;28;20207;-70
2022/11/23 03:09:56;;;;;;;8.37;2.47;;;;;;;4.35;100.00;95035.09;5057688;28;20220;-70
2022/11/23 03:12:22;;;;;;;10.13;2.40;;;;;;;4.39;100.00;95041.59;5061842;28;20199;-70
2022/11/23 03:14:49;;;;;;;7.97;2.13;;;;;;;4.44;100.00;95039.31;5057330;28;21134;-70
2022/11/23 03:17:15;;;;;;;6.00;2.80;;;;;;;4.49;100.00;95043.06;5057057;28;20220;-70
2022/11/23 03:19:43;;;;;;;4.20;1.97;;;;;;;4.51;100.00;95050.69;5056523;28;20223;-70
2022/11/23 03:22:10;;;;;;;5.33;2.40;;;;;;;4.48;100.00;95051.84;5056756;28;20200;-70
2022/11/23 03:24:36;;;;;;;6.00;2.13;;;;;;;4.48;100.00;95046.63;5063163;28;20219;-70
2022/11/23 03:27:03;;;;;;;5.87;2.10;;;;;;;4.46;100.00;95042.56;5057035;28;20196;-70
2022/11/23 03:29:29;;;;;;;10.10;2.47;;;;;;;4.49;100.00;95052.66;5064525;28;20224;-70
2022/11/23 03:31:56;;;;;;;7.50;2.17;;;;;;;4.51;100.00;95041.06;5057495;28;20208;-70
2022/11/23 03:34:23;;;;;;;8.20;2.30;;;;;;;4.59;100.00;95041.03;5055982;28;20201;-70
2022/11/23 03:36:51;;;;;;;9.07;2.37;;;;;;;4.62;100.00;95050.31;5056904;28;20236;-70
2022/11/23 03:39:17;;;;;;;6.57;2.47;;;;;;;4.55;100.00;95039.75;5056939;28;20718;-70
2022/11/23 03:41:44;;;;;;;12.30;1.70;;;;;;;4.55;100.00;95044.97;5056980;28;20240;-70
2022/11/23 03:44:10;;;;;;;5.73;2.00;;;;;;;4.54;100.00;95045.13;5064075;28;20203;-70
2022/11/23 03:46:37;;;;;;;9.50;2.87;;;;;;;4.53;100.00;95036.50;5053613;28;20675;-70
2022/11/23 03:49:04;;;;;;;8.07;2.20;;;;;;;4.53;100.00;95038.28;5064207;28;20230;-70
2022/11/23 03:51:30;;;;;;;10.07;3.27;;;;;;;4.47;100.00;95029.34;5056877;28;20207;-70
2022/11/23 03:53:58;;;;;;;14.17;2.87;;;;;;;4.50;100.00;95028.19;5057002;28;20673;-70
2022/11/23 03:56:25;;;;;;;10.27;3.17;;;;;;;4.47;100.00;95023.34;5060697;28;20704;-70
2022/11/23 03:58:51;;;;;;;4.13;2.33;;;;;;;4.46;100.00;95025.13;5056737;28;20709;-70
2022/11/23 04:01:18;;;;;;;6.20;1.90;;;;;;;4.46;100.00;95032.13;5061129;28;20204;-70
2022/11/23 04:03:44;;;;;;;8.23;2.10;;;;;;;4.47;100.00;95031.16;5067797;28;20573;-70
2022/11/23 04:06:11;;;;;;;2.03;1.40;;;;;;;4.49;100.00;95026.56;5065410;28;20863;-70
2022/11/23 04:08:38;;;;;;;3.67;2.00;;;;;;;4.47;100.00;95029.34;5060926;28;20597;-70
2022/11/23 04:11:06;;;;;;;3.87;1.90;;;;;;;4.48;100.00;95019.72;5061201;28;20234;-70
2022/11/23 04:13:32;;;;;;;4.30;2.00;;;;;;;4.34;100.00;95030.84;5059976;28;20204;-70
2022/11/23 04:15:59;;;;;;;3.80;2.40;;;;;;;4.35;100.00;95029.88;5060419;28;20228;-70
2022/11/23 04:18:25;;;;;;;4.00;1.70;;;;;;;4.31;100.00;95029.41;5068321;28;20216;-70
2022/11/23 04:20:52;;;;;;;3.83;1.57;;;;;;;4.23;100.00;95018.22;5060249;28;20223;-70
2022/11/23 04:23:18;;;;;;;2.40;1.67;;;;;;;4.23;100.00;95018.22;5059600;28;20200;-70
2022/11/23 04:25:45;;;;;;;4.87;1.97;;;;;;;4.28;100.00;95021.13;5060411;28;20200;-70
2022/11/23 04:28:13;;;;;;;10.03;3.47;;;;;;;4.36;100.00;95021.09;5060386;28;20231;-70
2022/11/23 04:30:39;;;;;;;4.30;2.30;;;;;;;4.27;100.00;95007.25;5060805;28;20207;-70
2022/11/23 04:33:06;;;;;;;8.77;2.40;;;;;;;4.34;100.00;95012.59;5059708;28;20200;-70
2022/11/23 04:35:33;;;;;;;3.37;2.00;;;;;;;4.38;100.00;95004.28;5060107;28;20228;-70
2022/11/23 04:38:00;;;;;;;3.23;1.80;;;;;;;4.30;100.00;95006.09;5060089;28;20231;-70
2022/11/23 04:40:27;;;;;;;3.33;1.90;;;;;;;4.33;100.00;95017.03;5060592;28;20232;-70
2022/11/23 04:42:54;;;;;;;6.03;1.90;;;;;;;4.30;100.00;95012.16;5059380;28;20254;-70
2022/11/23 04:45:22;;;;;;;7.27;2.87;;;;;;;4.35;100.00;95009.03;5056866;28;20201;-70
2022/11/23 04:47:48;;;;;;;11.60;3.57;;;;;;;4.20;100.00;95013.34;5059755;28;20579;-70
2022/11/23 04:50:16;;;;;;;8.27;2.77;;;;;;;4.33;100.00;95003.97;5060095;28;20208;-70
2022/11/23 04:52:43;;;;;;;5.03;2.20;;;;;;;4.37;100.00;95000.06;5059165;28;20197;-70
2022/11/23 04:55:09;;;;;;;5.30;2.00;;;;;;;4.45;100.00;95001.81;5059633;28;20211;-70
2022/11/23 04:57:36;;;;;;;4.23;1.77;;;;;;;4.41;100.00;94997.94;5059872;28;20216;-70
2022/11/23 05:00:03;;;;;;;3.87;2.00;;;;;;;4.51;100.00;94999.34;5060065;28;20220;-70
2022/11/23 05:02:31;;;;;;;6.33;2.07;;;;;;;4.59;100.00;95001.09;5065989;28;20196;-70
2022/11/23 05:04:57;;;;;;;5.70;2.43;;;;;;;4.59;100.00;94999.28;5059233;28;20212;-70
2022/11/23 05:07:24;;;;;;;10.70;2.83;;;;;;;4.56;100.00;94996.22;5059221;28;20199;-70
2022/11/23 05:09:50;;;;;;;12.87;3.43;;;;;;;4.57;100.00;95005.66;5063751;28;20235;-70
2022/11/23 05:12:17;;;;;;;7.77;2.50;;;;;;;4.68;100.00;94998.25;5065856;28;21063;-70
2022/11/23 05:14:44;;;;;;;10.67;3.30;;;;;;;4.66;100.00;94999.41;5059462;28;20208;-70
2022/11/23 05:17:10;;;;;;;5.53;2.93;;;;;;;4.72;100.00;94991.72;5058775;28;20703;-70
2022/11/23 05:19:38;;;;;;;7.67;2.30;;;;;;;4.76;100.00;94997.41;5060157;28;20220;-70
2022/11/23 05:22:05;;;;;;;5.30;2.13;;;;;;;4.69;100.00;95001.69;5059767;28;20212;-70
2022/11/23 05:24:31;;;;;;;6.07;2.13;;;;;;;4.65;100.00;94995.22;5058414;28;20208;-70
2022/11/23 05:26:58;;;;;;;8.87;1.70;;;;;;;4.71;100.00;94994.50;5059303;28;21106;-70
2022/11/23 05:29:24;;;;;;;6.00;1.80;;;;;;;4.66;100.00;94996.81;5059902;28;20224;-70
2022/11/23 05:31:51;;;;;;;4.27;2.10;;;;;;;4.64;100.00;94996.19;5059330;28;20212;-70
2022/11/23 05:34:17;;;;;;;5.37;1.90;;;;;;;4.58;100.00;94994.25;5058357;28;20208;-70
2022/11/23 05:36:45;;;;;;;4.63;1.30;;;;;;;4.57;100.00;94998.66;5059448;28;20232;-70
2022/11/23 05:39:12;;;;;;;5.77;1.77;;;;;;;4.57;100.00;94996.06;5060715;28;20856;-70
2022/11/23 05:41:38;;;;;;;4.03;1.90;;;;;;;4.63;100.00;94992.75;5065068;28;20207;-70
2022/11/23 05:44:05;;;;;;;3.90;1.67;;;;;;;4.70;100.00;94992.88;5059795;28;20211;-70
2022/11/23 05:46:31;;;;;;;6.00;1.97;;;;;;;4.69;100.00;94999.91;5062401;28;20684;-70
2022/11/23 05:48:58;;;;;;;7.40;1.80;;;;;;;4.72;100.00;94994.31;5058723;28;20243;-70
2022/11/23 05:51:24;;;;;;;3.77;2.27;;;;;;;4.68;100.00;94997.47;5059307;28;20295;-70
2022/11/23 05:53:52;;;;;;;3.63;1.80;;;;;;;4.65;100.00;94990.00;5057945;28;20207;-70
2022/11/23 05:56:19;;;;;;;7.37;1.90;;;;;;;4.53;100.00;94997.38;5058197;28;20768;-70
2022/11/23 05:58:46;;;;;;;3.10;1.80;;;;;;;4.61;100.00;94999.13;5059054;28;20232;-70
2022/11/23 06:01:12;;;;;;;7.83;3.53;;;;;;;4.67;100.00;94993.22;5059057;28;20209;-70
2022/11/23 06:03:39;;;;;;;5.47;2.00;;;;;;;4.61;100.00;94999.94;5058087;28;20203;-70
2022/11/23 06:06:06;;;;;;;2.73;1.60;;;;;;;4.65;100.00;94997.81;5058669;28;20212;-70
2022/11/23 06:08:32;;;;;;;7.93;2.43;;;;;;;4.67;100.00;95003.66;5058616;28;20220;-70
2022/11/23 06:11:02;;;;;;;3.43;2.00;;;;;;;4.75;100.00;95001.81;5058971;28;20209;-70
2022/11/23 06:13:28;;;;;;;3.90;2.03;;;;;;;4.74;100.00;94999.41;5057897;28;20208;-70
2022/11/23 06:15:55;;;;;;;5.33;1.93;;;;;;;4.73;100.00;95001.19;5058078;28;20928;-70
2022/11/23 06:18:21;;;;;;;5.47;2.03;;;;;;;4.77;100.00;95004.25;5062108;28;20219;-70
2022/11/23 06:20:48;;;;;;;6.17;2.23;;;;;;;4.67;100.00;94998.44;5063179;28;20209;-70
2022/11/23 06:23:14;;;;;;;3.93;1.87;;;;;;;4.73;100.00;94997.75;5059743;28;20205;-70
2022/11/23 06:25:41;;;;;;;6.07;2.30;;;;;;;4.73;100.00;95002.97;5063975;28;20227;-70
2022/11/23 06:28:08;;;;;;;3.97;2.00;;;;;;;4.77;100.00;95004.25;5058258;28;20228;-70
2022/11/23 06:30:35;;;;;;;5.57;2.23;;;;;;;4.72;100.00;95002.16;5058211;28;20295;-70
2022/11/23 06:33:03;;;;;;;8.30;1.93;;;;;;;4.79;100.00;95002.31;5057531;28;20200;-70
2022/11/23 06:35:29;;;;;;;4.60;2.07;;;;;;;4.69;100.00;95004.31;5057804;28;20208;-70
2022/11/23 06:37:56;;;;;;;2.63;1.70;;;;;;;4.72;100.00;95002.16;5057996;28;20228;-70
2022/11/23 06:40:22;;;;;;;4.70;2.00;;;;;;;4.75;100.00;94998.38;5057952;28;20200;-70
2022/11/23 06:42:49;;;;;;;4.63;2.20;;;;;;;4.80;100.00;95009.13;5056704;28;20319;-70
2022/11/23 06:45:17;;;;;;;6.77;2.20;;;;;;;4.83;100.00;95014.81;5056163;28;20212;-70
2022/11/23 06:47:43;;;;;;;4.73;2.30;;;;;;;4.85;100.00;95018.88;5058269;28;20216;-70
2022/11/23 06:50:10;;;;;;;6.00;2.10;;;;;;;4.86;100.00;95022.28;5057622;28;20208;-70
2022/11/23 06:52:37;;;;;;;2.83;1.67;;;;;;;4.85;100.00;95024.09;5056894;28;20204;-70
2022/11/23 06:55:04;;;;;;;5.90;1.87;;;;;;;4.88;100.00;95020.34;5058056;28;20205;-70
2022/11/23 06:57:30;;;;;;;3.93;1.87;;;;;;;4.83;100.00;95020.84;5057570;28;20220;-70
2022/11/23 06:59:57;;;;;;;3.13;1.83;;;;;;;4.88;100.00;95028.97;5057639;28;20228;-70
2022/11/23 07:02:25;;;;;;;4.10;2.00;;;;;;;5.00;100.00;95027.63;5057264;28;20584;-70
2022/11/23 07:04:52;;;;;;;5.33;2.20;;;;;;;4.99;100.00;95036.44;5057380;28;20235;-70
2022/11/23 07:07:18;;;;;;;3.93;2.17;;;;;;;4.97;100.00;95041.00;5057340;28;20557;-70
2022/11/23 07:09:45;;;;;;;5.03;2.40;;;;;;;4.98;100.00;95040.00;5057052;28;20231;-71
2022/11/23 07:12:11;;;;;;;5.13;2.00;;;;;;;4.99;100.00;95040.81;5067612;28;20209;-70
2022/11/23 07:14:38;;;;;;;5.60;2.47;;;;;;;4.97;100.00;95037.56;5075103;28;20204;-70
2022/11/23 07:17:04;;;;;;;4.93;2.27;;;;;;;4.96;100.00;95042.00;5064628;28;20231;-70
2022/11/23 07:19:32;;;;;;;10.80;2.07;;;;;;;5.13;100.00;95047.91;5074800;28;20220;-70
2022/11/23 07:21:58;;;;;;;4.80;1.80;;;;;;;5.11;100.00;95050.69;5068351;28;20207;-70
2022/11/23 07:24:25;;;;;;;3.73;2.00;;;;;;;5.16;100.00;95051.00;5066809;28;20576;-70
2022/11/23 07:26:51;;;;;;;3.37;1.90;;;;;;;5.15;100.00;95057.19;5060150;28;21160;-70
2022/11/23 07:29:18;;;;;;;6.07;2.53;;;;;;;5.16;100.00;95061.44;5059728;28;20455;-71
2022/11/23 07:31:44;;;;;;;5.87;2.13;;;;;;;5.19;100.00;95061.09;5056557;28;20680;-71
2022/11/23 07:34:11;;;;;;;4.27;2.20;;;;;;;5.19;100.00;95058.47;5063884;28;20306;-70
2022/11/23 07:36:39;;;;;;;5.57;2.03;;;;;;;5.25;100.00;95062.22;5068922;28;20227;-71
2022/11/23 07:39:06;;;;;;;6.03;2.33;;;;;;;5.27;100.00;95066.28;5057570;28;20224;-71
2022/11/23 07:41:32;;;;;;;4.53;2.10;;;;;;;5.30;100.00;95059.91;5068753;28;20200;-70
2022/11/23 07:43:59;;;;;;;4.97;2.40;;;;;;;5.36;100.00;95065.22;5066018;28;20208;-71
2022/11/23 07:46:26;;;;;;;3.40;1.90;;;;;;;5.41;100.00;95068.13;5057171;28;20199;-71
2022/11/23 07:48:53;;;;;;;5.07;2.30;;;;;;;5.41;100.00;95062.91;5059409;28;20227;-70
2022/11/23 07:51:20;;;;;;;6.73;2.37;;;;;;;5.47;100.00;95060.41;5063571;28;20201;-71
2022/11/23 07:53:47;;;;;;;5.63;2.30;;;;;;;5.60;100.00;95060.63;5057960;28;20208;-71
2022/11/23 07:56:14;;;;;;;5.40;2.50;;;;;;;5.56;100.00;95051.53;5056627;28;20208;-71
2022/11/23 07:58:40;;;;;;;5.47;2.57;;;;;;;5.65;100.00;95057.47;5057004;28;20226;-71
2022/11/23 08:01:07;;;;;;;2.77;2.03;;;;;;;5.69;100.00;95059.59;5056992;28;20212;-70
2022/11/23 08:03:34;;;;;;;6.87;2.70;;;;;;;5.70;100.00;95066.44;5056302;28;20219;-71
2022/11/23 08:06:00;;;;;;;4.87;2.57;;;;;;;5.77;100.00;95069.19;5057318;28;20208;-70
2022/11/23 08:08:27;;;;;;;4.20;2.57;;;;;;;5.86;100.00;95062.91;5056972;28;20615;-70
2022/11/23 08:10:54;;;;;;;6.27;2.50;;;;;;;5.88;100.00;95058.31;5062944;28;21106;-70
2022/11/23 08:13:22;;;;;;;6.27;2.77;;;;;;;5.98;100.00;95054.44;5058277;28;20204;-71
2022/11/23 08:15:49;;;;;;;6.37;2.93;;;;;;;5.99;100.00;95055.28;5069711;28;20686;-71
2022/11/23 08:18:16;;;;;;;5.27;2.77;;;;;;;6.01;100.00;95066.34;5061061;28;20310;-71
2022/11/23 08:20:42;;;;;;;4.23;2.57;;;;;;;6.11;100.00;95054.66;5062625;28;20250;-71
2022/11/23 08:23:09;;;;;;;7.97;3.33;;;;;;;6.19;100.00;95057.19;5057354;28;20205;-71
2022/11/23 08:25:35;;;;;;;9.73;3.30;;;;;;;6.14;100.00;95051.69;5067466;28;20206;-71
2022/11/23 08:28:04;;;;;;;6.77;3.37;;;;;;;6.32;100.00;95052.16;5059164;28;20223;-71
2022/11/23 08:30:32;;;;;;;11.67;3.77;;;;;;;6.41;100.00;95048.44;5057282;28;20205;-71
2022/11/23 08:33:02;;;;;;;10.97;3.50;;;;;;;6.47;100.00;95039.88;5056015;28;20213;-71
2022/11/23 08:35:28;;;;;;;10.20;4.10;;;;;;;6.50;100.00;95048.16;5056491;28;20212;-71
2022/11/23 08:37:55;;;;;;;10.73;3.83;;;;;;;6.60;100.00;95043.47;5056616;28;20565;-71
2022/11/23 08:40:21;;;;;;;12.03;3.93;;;;;;;6.68;100.00;95048.59;5057581;28;20204;-71
2022/11/23 08:42:48;;;;;;;16.80;3.80;;;;;;;6.73;100.00;95048.88;5059895;28;20201;-71
2022/11/23 08:45:16;;;;;;;8.47;3.13;;;;;;;6.85;100.00;95047.44;5056541;28;20205;-71
2022/11/23 08:47:42;;;;;;;21.00;3.97;;;;;;;6.90;100.00;95051.13;5060093;28;20200;-71
2022/11/23 08:50:09;;;;;;;13.43;4.40;;;;;;;6.91;100.00;95049.28;5060519;28;20211;-71
2022/11/23 08:52:36;;;;;;;12.67;4.60;;;;;;;6.94;100.00;95054.19;5059291;28;20223;-71
2022/11/23 08:55:02;;;;;;;16.80;5.77;;;;;;;6.95;100.00;95047.94;5060141;28;20204;-71
2022/11/23 08:57:29;;;;;;;18.00;5.00;;;;;;;6.90;100.00;95048.50;5060262;28;20229;-71
2022/11/23 08:59:55;;;;;;;13.07;4.40;;;;;;;6.88;100.00;95047.06;5067115;28;20224;-71
2022/11/23 09:02:23;;;;;;;9.97;4.83;;;;;;;7.02;100.00;95047.03;5058607;28;20201;-71
2022/11/23 09:04:50;;;;;;;11.93;4.67;;;;;;;6.87;100.00;95048.88;5066356;28;20250;-71
2022/11/23 09:07:16;;;;;;;13.90;4.30;;;;;;;6.97;100.00;95054.59;5058043;28;20203;-71
2022/11/23 09:09:43;;;;;;;8.97;3.67;;;;;;;7.14;100.00;95052.59;5064200;28;20228;-71
2022/11/23 09:12:09;;;;;;;7.13;3.50;;;;;;;7.22;100.00;95052.47;5058262;28;20208;-71
2022/11/23 09:14:36;;;;;;;5.37;2.50;;;;;;;7.33;100.00;95043.16;5057397;28;20205;-71
2022/11/23 09:17:03;;;;;;;7.40;2.80;;;;;;;7.46;100.00;95052.97;5058530;28;20240;-71
2022/11/23 09:19:31;;;;;;;7.10;2.30;;;;;;;7.56;100.00;95046.41;5061544;28;20238;-71
2022/11/23 09:21:57;;;;;;;7.47;3.07;;;;;;;7.65;100.00;95047.06;5058052;28;20204;-71
2022/11/23 09:24:26;;;;;;;9.47;3.27;;;;;;;7.50;100.00;95055.00;5057819;28;20197;-71
2022/11/23 09:26:53;;;;;;;10.33;3.57;;;;;;;7.60;100.00;95052.88;5058859;28;20201;-71
2022/11/23 09:29:19;;;;;;;11.83;3.83;;;;;;;7.74;100.00;95052.00;5058282;28;20231;-71
2022/11/23 09:31:46;;;;;;;9.97;3.37;;;;;;;7.73;100.00;95046.97;5058459;28;20217;-71
2022/11/23 09:34:13;;;;;;;10.63;3.23;;;;;;;7.86;100.00;95045.25;5057952;28;20204;-71
2022/11/23 09:36:41;;;;;;;9.17;2.40;;;;;;;7.98;100.00;95047.19;5058030;28;20635;-71
2022/11/23 09:39:08;;;;;;;6.50;2.37;;;;;;;8.06;100.00;95043.59;5065464;28;20232;-71
2022/11/23 09:42:22;;;;;;;5.83;2.33;;;;;;;8.20;99.69;95038.28;5058336;28;21076;-71
2022/11/23 09:45:08;;;;;;;8.37;2.00;;;;;;;8.10;98.06;95042.22;4992936;28;20206;-71
2022/11/23 09:47:55;;;;;;;5.63;2.10;;;;;;;8.04;98.45;95042.97;4995274;28;20199;-71
2022/11/23 09:50:27;;;;;;;5.73;1.90;;;;;;;8.27;97.11;95043.59;5045727;28;20200;-71
2022/11/23 09:52:55;;;;;;;9.03;2.27;;;;;;;8.43;96.07;95038.06;5056763;28;20213;-71
2022/11/23 09:55:36;;;;;;;3.93;1.60;;;;;;;8.31;95.66;95042.19;5056967;28;20725;-71
2022/11/23 09:58:06;;;;;;;8.87;1.80;;;;;;;8.40;94.96;95041.03;5058182;28;21091;-71
2022/11/23 10:00:37;;;;;;;3.90;1.70;;;;;;;8.56;95.37;95050.22;5058303;28;20212;-72
2022/11/23 10:03:04;;;;;;;4.43;2.03;;;;;;;8.49;96.02;95041.50;5058132;28;20204;-72
2022/11/23 10:05:36;;;;;;;7.40;1.63;;;;;;;8.48;97.25;95040.88;5060199;28;20334;-72
2022/11/23 10:08:14;;;;;;;4.60;1.97;;;;;;;8.45;96.44;95038.66;5057630;28;20220;-71
2022/11/23 10:10:43;;;;;;;4.10;2.30;;;;;;;8.55;96.49;95032.88;5057750;28;20212;-71
2022/11/23 10:13:27;;;;;;;6.57;2.77;;;;;;;8.46;94.47;95029.78;5056911;28;20205;-71
2022/11/23 10:16:05;;;;;;;4.23;2.00;;;;;;;8.48;96.57;95025.13;5057935;28;20603;-71
2022/11/23 10:18:44;;;;;;;5.67;1.83;;;;;;;8.52;95.51;95025.38;5064890;28;20940;-71
2022/11/23 10:21:22;;;;;;;3.80;1.70;;;;;;;8.52;97.50;95024.56;5057598;28;20204;-71
2022/11/23 10:23:55;;;;;;;2.87;1.80;;;;;;;8.55;95.87;95018.91;5065115;28;20215;-71
2022/11/23 10:26:28;;;;;;;7.50;2.87;;;;;;;8.52;95.48;95017.47;5057176;28;20570;-71
2022/11/23 10:28:55;;;;;;;5.40;2.10;;;;;;;8.55;96.12;95022.38;5060468;28;20220;-71
2022/11/23 10:31:24;;;;;;;3.67;1.60;;;;;;;8.63;94.63;95019.56;5068794;28;20196;-71
2022/11/23 10:33:58;;;;;;;5.97;2.17;;;;;;;8.65;95.05;95017.53;5075530;28;20293;-71
2022/11/23 10:36:24;;;;;;;6.73;2.00;;;;;;;8.53;95.06;95020.94;5057094;28;20208;-71
2022/11/23 10:38:57;;;;;;;3.83;1.87;;;;;;;8.62;96.93;95014.53;5057393;28;20228;-71
2022/11/23 10:41:24;;;;;;;5.67;2.03;;;;;;;8.60;94.73;95014.72;5056889;28;20224;-71
2022/11/23 10:43:56;;;;;;;6.37;2.97;;;;;;;8.82;93.49;95013.63;5056937;28;20212;-71
2022/11/23 10:46:26;;;;;;;7.70;2.10;;;;;;;8.88;92.91;95010.19;5053958;28;20680;-71
2022/11/23 10:48:54;;;;;;;3.50;2.27;;;;;;;8.78;92.22;95007.13;5057182;28;20228;-71
2022/11/23 10:51:27;;;;;;;10.93;2.03;;;;;;;8.92;92.01;95013.22;5057101;28;20200;-71
2022/11/23 10:53:58;;;;;;;3.93;2.10;;;;;;;8.89;91.14;95014.44;5056900;28;20718;-71
2022/11/23 10:56:25;;;;;;;3.63;1.97;;;;;;;8.79;92.69;95013.97;5056965;28;20298;-71
2022/11/23 10:58:52;;;;;;;3.80;2.20;;;;;;;8.79;92.21;95013.97;5056519;28;20708;-71
2022/11/23 11:01:22;;;;;;;7.57;2.40;;;;;;;8.98;92.60;95017.72;5056810;28;20676;-71
2022/11/23 11:03:48;;;;;;;2.90;1.80;;;;;;;8.81;91.24;95006.72;5056305;28;20270;-71
2022/11/23 11:06:22;;;;;;;12.30;2.70;;;;;;;9.03;91.30;95010.84;5056553;28;20208;-71
2022/11/23 11:08:51;;;;;;;6.03;2.37;;;;;;;8.94;92.50;95005.97;5056929;28;20298;-71
2022/11/23 11:11:27;;;;;;;11.37;2.87;;;;;;;9.14;91.81;95002.41;5056999;28;20207;-71
2022/11/23 11:14:05;;;;;;;4.30;2.20;;;;;;;9.42;91.33;95005.69;5055454;28;20261;-71
2022/11/23 11:16:34;;;;;;;8.33;2.07;;;;;;;9.52;90.65;94998.22;5055022;28;20869;-71
2022/11/23 11:19:22;;;;;;;6.73;1.93;;;;;;;9.54;88.16;94993.59;5055858;28;20233;-71
2022/11/23 11:21:48;;;;;;;8.57;2.20;;;;;;;9.24;89.35;95002.81;5056380;28;20201;-71
2022/11/23 11:24:18;;;;;;;5.63;2.13;;;;;;;9.43;90.42;95000.25;5055810;28;20205;-72
2022/11/23 11:26:50;;;;;;;8.03;2.30;;;;;;;9.45;89.98;95000.06;5056552;28;20660;-71
2022/11/23 11:29:31;;;;;;;9.13;2.80;;;;;;;9.51;90.17;94993.97;5055877;28;20346;-71
2022/11/23 11:32:03;;;;;;;6.00;2.43;;;;;;;9.46;89.91;94996.41;5056380;28;20204;-71
2022/11/23 11:34:35;;;;;;;9.33;2.53;;;;;;;9.60;89.24;94993.59;5055566;28;20418;-71
2022/11/23 11:37:09;;;;;;;6.80;2.13;;;;;;;9.46;88.11;94986.69;5055932;28;20216;-71
2022/11/23 11:39:44;;;;;;;9.83;1.90;;;;;;;9.56;88.78;94987.13;5056384;28;20626;-71